Time;durP1;ratioP1;P1;durP2;ratioP2;P2;SDS_P1;SDS_P2;PMS_P1;PMS_P2;Temp;Humidity;BMP_temperature;BMP_pressure;BME280_temperature;BME280_humidity;BME280_pressure;Samples;Min_cycle;Max_cycle;Signal;HPM_P1;HPM_P2
2020/12/11 00:01:49;;;;;;;8.57;6.00;;;6.60;96.70;;;;;;5001464;28;20038;-87
2020/12/11 00:04:16;;;;;;;9.43;5.65;;;6.60;96.70;;;;;;5003734;28;20038;-88
2020/12/11 00:06:43;;;;;;;6.80;5.45;;;6.60;96.70;;;;;;4987302;28;20046;-88
2020/12/11 00:09:11;;;;;;;6.30;5.25;;;6.60;96.70;;;;;;5000149;28;20050;-87
2020/12/11 00:11:39;;;;;;;5.28;4.18;;;6.60;96.70;;;;;;5001956;28;20555;-87
2020/12/11 00:14:06;;;;;;;5.88;4.45;;;6.60;96.70;;;;;;4985292;28;20084;-88
2020/12/11 00:16:35;;;;;;;4.57;3.33;;;6.70;96.70;;;;;;5000580;28;20058;-88
2020/12/11 00:19:03;;;;;;;4.90;3.45;;;6.60;96.70;;;;;;4985731;28;20054;-88
2020/12/11 00:21:38;;;;;;;5.72;3.70;;;6.60;96.70;;;;;;4988550;28;20153;-88
2020/12/11 00:24:05;;;;;;;6.85;4.50;;;6.70;96.70;;;;;;4999202;28;20042;-88
2020/12/11 00:26:32;;;;;;;6.25;4.70;;;6.80;96.70;;;;;;5002550;28;20125;-89
2020/12/11 00:29:00;;;;;;;6.03;4.18;;;6.80;96.70;;;;;;5001991;28;20048;-88
2020/12/11 00:31:27;;;;;;;5.80;4.15;;;6.70;96.70;;;;;;4999740;28;20571;-88
2020/12/11 00:33:55;;;;;;;5.72;4.10;;;6.70;96.70;;;;;;4998586;28;20137;-88
2020/12/11 00:36:24;;;;;;;5.45;4.40;;;6.70;96.70;;;;;;4999183;28;20038;-88
2020/12/11 00:38:51;;;;;;;7.13;4.38;;;6.70;96.70;;;;;;5001639;28;20431;-88
2020/12/11 00:41:19;;;;;;;5.97;4.22;;;6.70;96.70;;;;;;4985575;28;20140;-87
2020/12/11 00:43:46;;;;;;;6.13;4.45;;;6.70;96.70;;;;;;5000835;28;20038;-87
2020/12/11 00:46:14;;;;;;;5.13;3.80;;;6.80;96.70;;;;;;5002431;28;20048;-88
2020/12/11 00:48:41;;;;;;;6.22;4.30;;;6.80;96.70;;;;;;5002100;28;20046;-87
2020/12/11 00:51:08;;;;;;;4.07;3.67;;;6.80;96.70;;;;;;4998669;28;20085;-88
2020/12/11 00:53:35;;;;;;;6.07;4.30;;;6.70;96.70;;;;;;5012562;28;20042;-88
2020/12/11 00:56:03;;;;;;;6.80;5.03;;;6.70;96.70;;;;;;4985584;28;20466;-87
2020/12/11 00:58:30;;;;;;;6.50;4.80;;;6.70;96.70;;;;;;5002868;28;20046;-87
2020/12/11 01:00:57;;;;;;;7.00;5.03;;;6.70;96.70;;;;;;4985674;28;20613;-88
2020/12/11 01:03:25;;;;;;;7.63;5.35;;;6.60;96.70;;;;;;5001750;28;20661;-88
2020/12/11 01:05:52;;;;;;;6.30;4.35;;;6.60;96.70;;;;;;4999855;28;20578;-87
2020/12/11 01:08:20;;;;;;;5.90;4.78;;;6.50;96.70;;;;;;5002144;28;20057;-88
2020/12/11 01:10:47;;;;;;;6.32;4.50;;;6.50;96.70;;;;;;5000494;28;20042;-89
2020/12/11 01:13:14;;;;;;;6.95;4.90;;;6.50;96.70;;;;;;5002743;28;20081;-88
2020/12/11 01:15:41;;;;;;;8.65;4.68;;;6.40;96.70;;;;;;4987996;28;20152;-89
2020/12/11 01:18:08;;;;;;;5.07;4.30;;;6.30;96.70;;;;;;5003848;28;20088;-88
2020/12/11 01:20:36;;;;;;;6.47;4.65;;;6.30;96.70;;;;;;4986288;28;20061;-88
2020/12/11 01:23:03;;;;;;;7.10;4.60;;;6.30;96.70;;;;;;5003993;28;20462;-88
2020/12/11 01:25:30;;;;;;;7.45;4.80;;;6.30;96.70;;;;;;5004163;28;20038;-88
2020/12/11 01:27:59;;;;;;;6.53;4.75;;;6.40;96.70;;;;;;4987462;28;20158;-87
2020/12/11 01:30:26;;;;;;;8.05;5.00;;;6.40;96.70;;;;;;5004832;28;20062;-87
2020/12/11 01:32:53;;;;;;;7.75;5.50;;;6.30;96.70;;;;;;5004213;28;20049;-88
2020/12/11 01:35:21;;;;;;;6.30;4.03;;;6.20;96.70;;;;;;5004393;28;20065;-88
2020/12/11 01:37:49;;;;;;;6.45;4.03;;;6.10;96.70;;;;;;5005911;28;20065;-88
2020/12/11 01:40:16;;;;;;;9.10;4.63;;;6.10;96.70;;;;;;5005089;28;20125;-88
2020/12/11 01:42:43;;;;;;;7.13;4.10;;;6.10;96.70;;;;;;5003084;28;20048;-88
2020/12/11 01:45:10;;;;;;;5.68;3.92;;;6.10;96.70;;;;;;5003915;28;20085;-87
2020/12/11 01:47:40;;;;;;;4.75;3.05;;;6.10;96.70;;;;;;4988028;28;20141;-88
2020/12/11 01:50:18;;;;;;;6.25;2.92;;;6.20;96.70;;;;;;5003378;28;20301;-88
2020/12/11 01:52:56;;;;;;;3.85;2.38;;;6.20;96.70;;;;;;5002890;28;20507;-88
2020/12/11 01:55:33;;;;;;;3.05;2.47;;;6.20;96.70;;;;;;5001707;28;20582;-87
2020/12/11 01:58:09;;;;;;;;;;;6.10;96.70;;;;;;5002948;28;20045;-88
2020/12/11 02:00:42;;;;;;;2.60;2.08;;;6.20;96.70;;;;;;4987619;28;20021;-88
2020/12/11 02:03:10;;;;;;;2.58;2.20;;;6.10;96.70;;;;;;5013864;28;20072;-89
2020/12/11 02:05:38;;;;;;;2.90;2.17;;;6.00;96.70;;;;;;5019651;28;20041;-87
2020/12/11 02:08:07;;;;;;;3.47;2.13;;;5.90;96.70;;;;;;5002995;28;20038;-88
2020/12/11 02:10:36;;;;;;;4.18;2.22;;;5.90;96.70;;;;;;5003830;28;20274;-87
2020/12/11 02:13:06;;;;;;;3.03;2.22;;;5.90;96.70;;;;;;5003152;28;20115;-88
2020/12/11 02:15:34;;;;;;;2.72;1.88;;;5.90;96.70;;;;;;5004526;28;20049;-88
2020/12/11 02:18:03;;;;;;;6.85;2.55;;;5.80;96.70;;;;;;5003630;28;20045;-88
2020/12/11 02:20:30;;;;;;;2.95;1.98;;;5.80;96.70;;;;;;5002322;28;20148;-88
2020/12/11 02:22:58;;;;;;;2.35;1.77;;;5.80;96.70;;;;;;4985736;28;20069;-89
2020/12/11 02:25:25;;;;;;;2.65;1.90;;;5.80;96.70;;;;;;5004723;28;20475;-88
2020/12/11 02:27:52;;;;;;;4.53;2.22;;;5.80;96.70;;;;;;5000885;28;20053;-88
2020/12/11 02:30:20;;;;;;;2.58;1.90;;;5.80;96.70;;;;;;4985799;28;20101;-87
2020/12/11 02:32:47;;;;;;;2.42;1.77;;;5.80;96.70;;;;;;5000458;28;20038;-87
2020/12/11 02:35:14;;;;;;;2.83;1.70;;;5.70;96.70;;;;;;5007509;28;20088;-88
2020/12/11 02:37:41;;;;;;;1.92;1.60;;;5.80;96.70;;;;;;5001396;28;20088;-87
2020/12/11 02:40:09;;;;;;;2.63;1.80;;;5.80;96.70;;;;;;5003992;28;20037;-87
2020/12/11 02:42:36;;;;;;;2.72;1.58;;;5.80;96.70;;;;;;4986359;28;20049;-88
2020/12/11 02:45:04;;;;;;;2.58;2.00;;;5.70;96.70;;;;;;5003880;28;20053;-87
2020/12/11 02:47:32;;;;;;;1.77;1.40;;;5.70;96.70;;;;;;5001023;28;20093;-88
2020/12/11 02:50:01;;;;;;;4.78;1.80;;;5.80;96.70;;;;;;5001777;28;20061;-87
2020/12/11 02:52:28;;;;;;;3.25;2.00;;;5.80;96.70;;;;;;5003673;28;20040;-87
2020/12/11 02:54:55;;;;;;;2.17;1.77;;;5.80;96.70;;;;;;4990164;28;20046;-88
2020/12/11 02:57:23;;;;;;;1.70;1.60;;;5.80;96.70;;;;;;5002399;28;20049;-88
2020/12/11 02:59:50;;;;;;;1.88;1.50;;;5.70;96.70;;;;;;5002799;28;20092;-88
2020/12/11 03:02:17;;;;;;;2.17;1.70;;;5.70;96.70;;;;;;5000876;28;20050;-88
2020/12/11 03:04:45;;;;;;;2.28;1.88;;;5.60;96.70;;;;;;5018228;28;20080;-87
2020/12/11 03:07:12;;;;;;;2.55;1.80;;;5.60;96.70;;;;;;5001714;28;20053;-88
2020/12/11 03:09:39;;;;;;;2.00;1.77;;;5.50;96.70;;;;;;5002088;28;20029;-88
2020/12/11 03:12:06;;;;;;;2.08;1.80;;;5.60;96.70;;;;;;5001111;28;20830;-88
2020/12/11 03:14:34;;;;;;;2.08;1.88;;;5.70;96.70;;;;;;5001077;28;20041;-87
2020/12/11 03:17:01;;;;;;;2.00;1.60;;;5.60;96.70;;;;;;5002122;28;20052;-88
2020/12/11 03:19:28;;;;;;;2.45;2.10;;;5.50;96.70;;;;;;4985155;28;20554;-87
2020/12/11 03:21:55;;;;;;;2.58;2.30;;;5.40;96.70;;;;;;5003091;28;20084;-87
2020/12/11 03:24:22;;;;;;;1.75;1.48;;;5.40;96.70;;;;;;5001868;28;20042;-87
2020/12/11 03:26:50;;;;;;;2.10;1.58;;;5.50;96.70;;;;;;4986391;28;20049;-87
2020/12/11 03:29:17;;;;;;;3.38;1.90;;;5.40;96.70;;;;;;5003115;28;20111;-88
2020/12/11 03:31:45;;;;;;;1.65;1.40;;;5.50;96.70;;;;;;4999968;28;20057;-87
2020/12/11 03:34:12;;;;;;;1.63;1.45;;;5.50;96.70;;;;;;5001251;28;20034;-88
2020/12/11 03:36:39;;;;;;;3.35;1.50;;;5.50;96.70;;;;;;5002515;28;20045;-88
2020/12/11 03:39:06;;;;;;;1.95;1.40;;;5.40;96.70;;;;;;5002392;28;20042;-88
2020/12/11 03:41:34;;;;;;;1.50;1.25;;;5.40;96.70;;;;;;5001709;28;20045;-88
2020/12/11 03:44:01;;;;;;;2.25;1.20;;;5.30;96.70;;;;;;5000063;28;20038;-88
2020/12/11 03:46:28;;;;;;;1.80;1.38;;;5.30;96.70;;;;;;5001705;28;20041;-87
2020/12/11 03:48:56;;;;;;;1.83;1.33;;;5.30;96.70;;;;;;4989477;28;20042;-87
2020/12/11 03:51:24;;;;;;;2.40;1.48;;;5.20;96.70;;;;;;5019389;28;20046;-87
2020/12/11 03:53:51;;;;;;;1.98;1.58;;;5.30;96.70;;;;;;4999891;28;20460;-88
2020/12/11 03:56:19;;;;;;;1.83;1.50;;;5.30;96.70;;;;;;5017063;28;20326;-88
2020/12/11 03:58:46;;;;;;;2.42;1.85;;;5.30;96.70;;;;;;5000754;28;20037;-87
2020/12/11 04:01:15;;;;;;;1.95;1.73;;;5.20;96.70;;;;;;4998628;28;20831;-88
2020/12/11 04:03:42;;;;;;;2.58;1.80;;;5.20;96.70;;;;;;5000912;28;20034;-88
2020/12/11 04:06:14;;;;;;;2.33;1.83;;;5.20;96.70;;;;;;4999257;28;20078;-88
2020/12/11 04:08:42;;;;;;;2.15;1.38;;;5.20;96.70;;;;;;5017587;28;20550;-86
2020/12/11 04:11:11;;;;;;;1.70;1.48;;;5.10;96.70;;;;;;4987569;28;20052;-88
2020/12/11 04:13:39;;;;;;;2.03;1.70;;;5.00;96.70;;;;;;5000890;28;20048;-87
2020/12/11 04:16:06;;;;;;;1.88;1.55;;;5.10;96.70;;;;;;5002264;28;20263;-88
2020/12/11 04:18:34;;;;;;;2.17;1.67;;;5.10;96.70;;;;;;4999915;28;20042;-87
2020/12/11 04:21:01;;;;;;;1.58;1.45;;;5.10;96.70;;;;;;5002584;28;20122;-88
2020/12/11 04:23:29;;;;;;;2.30;1.83;;;5.00;96.70;;;;;;4995594;28;20046;-87
2020/12/11 04:25:57;;;;;;;3.35;1.80;;;5.00;96.70;;;;;;4999889;28;20034;-88
2020/12/11 04:28:24;;;;;;;2.13;1.70;;;5.10;96.70;;;;;;4985160;28;20052;-87
2020/12/11 04:30:51;;;;;;;2.60;1.58;;;5.10;96.70;;;;;;4998434;28;20042;-88
2020/12/11 04:33:19;;;;;;;2.65;1.55;;;5.10;96.70;;;;;;4998344;28;20038;-88
2020/12/11 04:35:46;;;;;;;2.08;1.83;;;5.00;96.70;;;;;;5000633;28;20062;-88
2020/12/11 04:38:13;;;;;;;3.17;1.80;;;5.00;96.70;;;;;;5001690;28;20033;-88
2020/12/11 04:40:41;;;;;;;2.13;1.55;;;5.00;96.70;;;;;;4985626;28;20034;-88
2020/12/11 04:43:10;;;;;;;3.05;1.80;;;5.00;96.70;;;;;;4984935;28;20404;-88
2020/12/11 04:45:38;;;;;;;2.60;1.92;;;5.00;96.70;;;;;;5001950;28;20045;-87
2020/12/11 04:48:07;;;;;;;2.45;1.50;;;5.00;96.70;;;;;;5028460;28;20060;-87
2020/12/11 04:50:35;;;;;;;2.42;1.88;;;4.90;96.70;;;;;;5005100;28;20049;-88
2020/12/11 04:53:04;;;;;;;2.05;1.70;;;4.90;96.70;;;;;;5002478;28;20112;-87
2020/12/11 04:55:35;;;;;;;2.15;1.70;;;4.70;96.70;;;;;;4987082;28;20615;-88
2020/12/11 04:58:05;;;;;;;1.75;1.35;;;4.70;96.70;;;;;;5003655;28;20058;-88
2020/12/11 05:00:32;;;;;;;2.03;1.25;;;4.80;96.70;;;;;;5005740;28;20048;-87
2020/12/11 05:03:01;;;;;;;1.50;0.98;;;4.60;96.70;;;;;;5001059;28;20038;-87
2020/12/11 05:05:28;;;;;;;1.33;1.23;;;4.50;96.70;;;;;;5005895;28;20038;-88
2020/12/11 05:07:55;;;;;;;2.40;1.35;;;4.40;96.70;;;;;;4988822;28;20046;-87
2020/12/11 05:10:22;;;;;;;1.50;1.30;;;4.50;96.70;;;;;;4988571;28;20054;-88
2020/12/11 05:12:50;;;;;;;1.50;1.40;;;4.50;96.70;;;;;;5006417;28;20041;-87
2020/12/11 05:15:19;;;;;;;1.27;1.13;;;4.60;96.70;;;;;;5005598;28;20115;-87
2020/12/11 05:17:46;;;;;;;1.80;1.20;;;4.50;96.70;;;;;;5003638;28;20049;-87
2020/12/11 05:20:13;;;;;;;1.77;1.20;;;4.60;96.70;;;;;;5003730;28;20538;-88
2020/12/11 05:22:41;;;;;;;1.80;1.40;;;4.50;96.70;;;;;;5003744;28;20041;-88
2020/12/11 05:25:13;;;;;;;1.98;1.52;;;4.40;96.70;;;;;;5004887;28;20049;-87
2020/12/11 05:27:43;;;;;;;2.42;1.70;;;4.40;96.70;;;;;;5005452;28;20041;-87
2020/12/11 05:30:25;;;;;;;3.35;2.08;;;4.40;96.70;;;;;;4987712;28;20546;-89
2020/12/11 05:32:57;;;;;;;2.22;1.30;;;4.40;96.70;;;;;;4985591;28;20050;-90
2020/12/11 05:35:32;;;;;;;2.67;1.50;;;4.40;96.70;;;;;;4989767;28;20503;-89
2020/12/11 05:38:02;;;;;;;2.20;1.63;;;4.40;96.70;;;;;;4989092;28;20476;-87
2020/12/11 05:40:31;;;;;;;5.32;2.40;;;4.50;96.70;;;;;;5003335;28;20041;-88
2020/12/11 05:43:16;;;;;;;2.45;1.80;;;4.40;96.70;;;;;;4983083;28;20408;-88
2020/12/11 05:45:59;;;;;;;2.65;1.90;;;4.30;96.70;;;;;;4984681;28;20055;-89
2020/12/11 05:48:36;;;;;;;3.30;2.20;;;4.30;96.70;;;;;;5018827;28;20045;-88
2020/12/11 05:51:12;;;;;;;3.08;2.33;;;4.50;96.70;;;;;;5003671;28;20054;-88
2020/12/11 05:53:39;;;;;;;3.90;2.00;;;4.40;96.70;;;;;;4987303;28;20046;-87
2020/12/11 05:56:06;;;;;;;4.65;2.55;;;4.30;96.70;;;;;;4986558;28;20119;-88
2020/12/11 05:58:34;;;;;;;3.80;2.63;;;4.20;96.70;;;;;;4977883;28;20060;-88
2020/12/11 06:01:03;;;;;;;2.67;1.60;;;4.20;96.70;;;;;;5002215;28;20113;-87
2020/12/11 06:03:30;;;;;;;2.72;1.45;;;4.10;96.70;;;;;;5003370;28;20814;-87
2020/12/11 06:05:59;;;;;;;2.92;1.60;;;4.20;96.70;;;;;;5002235;28;20545;-87
2020/12/11 06:08:27;;;;;;;4.93;2.10;;;4.20;96.70;;;;;;4986839;28;20460;-85
2020/12/11 06:10:55;;;;;;;3.63;2.20;;;4.20;96.70;;;;;;5003540;28;20049;-86
2020/12/11 06:13:35;;;;;;;2.30;1.60;;;4.20;96.70;;;;;;5021134;28;20051;-86
2020/12/11 06:16:05;;;;;;;4.50;2.03;;;4.20;96.70;;;;;;5002740;28;20053;-85
2020/12/11 06:18:37;;;;;;;2.55;1.73;;;4.10;96.70;;;;;;5003013;28;20038;-86
2020/12/11 06:21:05;;;;;;;2.35;1.70;;;4.10;96.70;;;;;;5001916;28;20111;-84
2020/12/11 06:23:32;;;;;;;1.80;1.42;;;4.10;96.70;;;;;;5005553;28;20534;-85
2020/12/11 06:26:00;;;;;;;2.85;1.70;;;4.10;96.70;;;;;;5003697;28;20046;-88
2020/12/11 06:28:39;;;;;;;2.58;1.65;;;4.00;96.70;;;;;;4986483;28;20697;-89
2020/12/11 06:31:08;;;;;;;3.38;2.03;;;4.10;96.70;;;;;;5002121;28;20037;-84
2020/12/11 06:33:37;;;;;;;4.25;2.30;;;4.00;96.70;;;;;;5001414;28;20042;-88
2020/12/11 06:36:05;;;;;;;3.20;2.00;;;4.10;96.70;;;;;;5003533;28;20037;-86
2020/12/11 06:38:41;;;;;;;4.50;2.55;;;4.20;96.70;;;;;;4985675;28;20049;-90
2020/12/11 06:41:09;;;;;;;3.80;2.20;;;4.30;96.70;;;;;;5000453;28;20038;-88
2020/12/11 06:43:38;;;;;;;6.05;2.20;;;4.30;96.70;;;;;;4985837;28;20351;-86
2020/12/11 06:46:17;;;;;;;6.82;2.50;;;4.30;96.70;;;;;;5002454;28;20519;-86
2020/12/11 06:49:14;;;;;;;9.50;3.20;;;4.40;96.70;;;;;;4999481;28;20048;-86
2020/12/11 06:52:10;;;;;;;6.83;2.63;;;4.40;96.70;;;;;;5001387;28;20117;-86
2020/12/11 06:54:53;;;;;;;14.90;2.65;;;4.50;96.70;;;;;;5013613;28;20468;-85
2020/12/11 06:57:31;;;;;;;8.95;2.60;;;4.60;96.70;;;;;;4997361;28;20061;-86
2020/12/11 06:59:58;;;;;;;13.18;2.90;;;4.50;96.70;;;;;;5002288;28;20037;-84
2020/12/11 07:02:26;;;;;;;9.00;2.83;;;4.70;96.70;;;;;;4986194;28;20151;-88
2020/12/11 07:04:54;;;;;;;10.57;3.00;;;4.70;96.70;;;;;;5001925;28;20096;-88
2020/12/11 07:07:29;;;;;;;13.57;3.17;;;4.80;96.70;;;;;;4999249;28;20056;-87
2020/12/11 07:09:56;;;;;;;14.30;3.22;;;4.80;96.70;;;;;;5000869;28;20104;-87
2020/12/11 07:12:24;;;;;;;18.00;2.90;;;4.80;96.70;;;;;;4984734;28;20116;-87
2020/12/11 07:14:51;;;;;;;9.35;3.30;;;4.80;96.70;;;;;;5002887;28;20100;-87
2020/12/11 07:17:28;;;;;;;7.40;3.38;;;4.90;96.70;;;;;;5003449;28;20052;-88
2020/12/11 07:19:57;;;;;;;5.45;2.70;;;4.90;96.70;;;;;;4986000;28;20046;-87
2020/12/11 07:22:24;;;;;;;4.28;2.65;;;4.90;96.70;;;;;;4986751;28;20046;-87
2020/12/11 07:24:51;;;;;;;10.13;3.78;;;5.00;96.70;;;;;;4983431;28;20519;-87
2020/12/11 07:27:18;;;;;;;6.63;3.38;;;5.00;96.70;;;;;;5002309;28;20120;-88
2020/12/11 07:29:49;;;;;;;19.02;6.70;;;5.00;96.70;;;;;;4985445;28;20121;-88
2020/12/11 07:32:18;;;;;;;15.70;5.78;;;5.00;96.70;;;;;;5000345;28;20502;-87
2020/12/11 07:34:46;;;;;;;17.65;6.47;;;5.00;96.70;;;;;;4987411;28;20053;-88
2020/12/11 07:37:14;;;;;;;14.07;6.38;;;5.10;96.70;;;;;;5003029;28;20069;-87
2020/12/11 07:39:41;;;;;;;10.07;4.53;;;5.00;96.70;;;;;;4998947;28;20125;-88
2020/12/11 07:42:09;;;;;;;7.43;4.05;;;5.00;96.70;;;;;;5002724;28;20050;-88
2020/12/11 07:44:38;;;;;;;9.45;4.00;;;5.00;96.70;;;;;;4983851;28;20030;-88
2020/12/11 07:47:08;;;;;;;14.18;5.10;;;5.10;96.70;;;;;;5002930;28;20610;-87
2020/12/11 07:49:36;;;;;;;16.63;4.63;;;5.20;96.70;;;;;;5002085;28;20049;-87
2020/12/11 07:52:04;;;;;;;28.55;5.03;;;5.10;96.70;;;;;;5001970;28;20104;-88
2020/12/11 07:54:34;;;;;;;20.30;4.53;;;5.10;96.70;;;;;;4985842;28;20061;-88
2020/12/11 07:57:08;;;;;;;16.55;4.38;;;5.10;96.70;;;;;;5018688;28;20060;-87
2020/12/11 07:59:35;;;;;;;18.55;3.63;;;4.90;96.70;;;;;;5002438;28;20502;-88
2020/12/11 08:02:03;;;;;;;9.60;3.47;;;4.90;96.70;;;;;;4987610;28;20515;-88
2020/12/11 08:04:30;;;;;;;24.85;2.80;;;4.90;96.70;;;;;;5002594;28;20065;-88
2020/12/11 08:06:58;;;;;;;10.10;2.60;;;5.00;96.70;;;;;;5010421;28;20052;-88
2020/12/11 08:09:30;;;;;;;14.02;2.85;;;5.00;96.70;;;;;;4985979;28;20500;-88
2020/12/11 08:12:10;;;;;;;8.63;1.92;;;4.90;96.70;;;;;;4986119;28;20046;-86
2020/12/11 08:14:39;;;;;;;14.57;2.17;;;4.90;96.70;;;;;;4980262;28;20636;-86
2020/12/11 08:17:08;;;;;;;4.40;2.10;;;5.00;96.70;;;;;;5001805;28;20061;-88
2020/12/11 08:19:36;;;;;;;8.52;2.72;;;5.00;96.70;;;;;;5001739;28;20049;-86
2020/12/11 08:22:11;;;;;;;7.00;3.55;;;5.00;96.70;;;;;;4987647;28;20046;-87
2020/12/11 08:24:39;;;;;;;12.45;2.88;;;5.10;96.70;;;;;;5005384;28;20046;-88
2020/12/11 08:27:20;;;;;;;7.47;3.50;;;5.00;96.70;;;;;;4988963;28;20045;-87
2020/12/11 08:29:59;;;;;;;8.48;3.90;;;5.10;96.70;;;;;;5005633;28;20237;-88
2020/12/11 08:32:27;;;;;;;8.13;4.50;;;5.30;96.70;;;;;;5006456;28;20046;-87
2020/12/11 08:34:54;;;;;;;8.13;4.15;;;5.40;96.70;;;;;;4989315;28;20614;-87
2020/12/11 08:37:21;;;;;;;11.63;3.70;;;5.50;96.70;;;;;;5002911;28;20046;-87
2020/12/11 08:39:49;;;;;;;8.63;4.00;;;5.50;96.70;;;;;;5005433;28;20038;-86
2020/12/11 08:42:22;;;;;;;12.40;5.18;;;5.40;96.70;;;;;;4989750;28;20053;-88
2020/12/11 08:50:19;;;;;;;7.53;4.75;;;5.60;96.70;;;;;;5003039;28;20125;-87
2020/12/11 08:52:47;;;;;;;11.80;4.40;;;5.70;96.70;;;;;;5005771;28;20121;-87
2020/12/11 08:55:15;;;;;;;6.35;4.28;;;5.70;96.70;;;;;;5004346;28;20598;-88
2020/12/11 08:57:42;;;;;;;6.70;4.30;;;5.80;96.70;;;;;;5003745;28;20477;-88
2020/12/11 09:00:09;;;;;;;7.53;3.67;;;5.90;96.70;;;;;;5005266;28;20088;-87
2020/12/11 09:02:39;;;;;;;7.82;3.50;;;6.00;96.70;;;;;;4988450;28;20055;-88
2020/12/11 09:05:06;;;;;;;5.88;3.80;;;6.00;96.70;;;;;;4989524;28;20116;-87
2020/12/11 09:07:38;;;;;;;5.30;3.72;;;6.10;96.70;;;;;;5004664;28;20424;-87
2020/12/11 09:10:05;;;;;;;5.60;3.85;;;6.20;96.70;;;;;;5004006;28;20042;-88
2020/12/11 09:12:36;;;;;;;5.63;3.70;;;6.20;96.70;;;;;;5001567;28;20096;-87
2020/12/11 09:15:06;;;;;;;6.15;3.80;;;6.30;96.70;;;;;;5004493;28;20173;-88
2020/12/11 09:17:34;;;;;;;13.93;4.53;;;6.30;96.70;;;;;;5021119;28;20046;-87
2020/12/11 09:20:02;;;;;;;10.52;4.18;;;6.40;96.70;;;;;;5001072;28;20088;-87
2020/12/11 09:22:29;;;;;;;13.23;4.05;;;6.40;96.70;;;;;;5005196;28;20042;-88
2020/12/11 09:24:56;;;;;;;7.05;4.78;;;6.30;96.70;;;;;;4993417;28;20042;-87
2020/12/11 09:27:24;;;;;;;16.45;5.13;;;6.40;96.70;;;;;;5003200;28;20590;-88
2020/12/11 09:29:53;;;;;;;6.57;4.40;;;6.40;96.70;;;;;;5005717;28;20096;-88
2020/12/11 09:32:31;;;;;;;8.07;4.85;;;6.40;96.70;;;;;;5002089;28;20476;-88
2020/12/11 09:34:59;;;;;;;12.13;5.07;;;6.50;96.70;;;;;;5000115;28;20113;-88
2020/12/11 09:37:26;;;;;;;6.95;4.75;;;6.50;96.70;;;;;;5020257;28;20136;-86
2020/12/11 09:39:53;;;;;;;9.60;5.68;;;6.50;96.70;;;;;;4985839;28;20057;-87
2020/12/11 09:50:08;;;;;;;12.27;5.90;;;6.70;96.70;;;;;;5003795;28;20141;-88
2020/12/11 09:52:51;;;;;;;9.45;5.53;;;6.60;96.70;;;;;;4983778;28;20154;-87
2020/12/11 09:55:18;;;;;;;7.88;5.55;;;6.60;96.70;;;;;;5002687;28;20038;-88
2020/12/11 09:57:45;;;;;;;12.80;5.10;;;6.60;96.70;;;;;;4987838;28;20046;-88
2020/12/11 10:00:13;;;;;;;9.98;3.97;;;6.70;96.70;;;;;;5004284;28;20439;-88
2020/12/11 10:02:55;;;;;;;10.60;4.03;;;6.70;96.70;;;;;;5004345;28;20030;-87
2020/12/11 10:05:23;;;;;;;12.25;4.47;;;6.80;96.70;;;;;;5000218;28;20042;-86
2020/12/11 10:07:50;;;;;;;9.27;4.28;;;6.90;96.70;;;;;;5003951;28;20092;-87
2020/12/11 10:10:18;;;;;;;6.78;4.97;;;7.00;96.70;;;;;;5001728;28;20042;-87
2020/12/11 10:12:45;;;;;;;7.85;5.85;;;7.20;96.70;;;;;;5000885;28;20101;-86
2020/12/11 10:15:14;;;;;;;8.07;5.43;;;7.50;96.70;;;;;;5002042;28;20050;-87
2020/12/11 10:17:41;;;;;;;7.90;6.05;;;7.60;96.70;;;;;;5001663;28;20116;-87
2020/12/11 10:20:09;;;;;;;7.50;5.35;;;7.50;96.70;;;;;;5002761;28;20050;-86
2020/12/11 10:22:36;;;;;;;7.13;5.30;;;7.50;96.70;;;;;;4995822;28;20042;-86
2020/12/11 10:25:05;;;;;;;10.20;5.30;;;7.50;96.70;;;;;;5002950;28;20069;-87
2020/12/11 10:27:33;;;;;;;12.20;5.22;;;7.60;96.70;;;;;;5001205;28;20540;-86
2020/12/11 10:30:04;;;;;;;10.73;4.75;;;7.60;96.70;;;;;;5001275;28;20585;-87
2020/12/11 10:32:31;;;;;;;8.38;4.70;;;7.60;96.70;;;;;;5003041;28;20530;-87
2020/12/11 10:34:59;;;;;;;6.88;5.03;;;7.50;96.70;;;;;;5015709;28;20051;-87
2020/12/11 10:37:27;;;;;;;8.05;4.72;;;7.40;96.70;;;;;;4987762;28;20050;-87
2020/12/11 10:39:54;;;;;;;6.07;5.00;;;7.40;96.70;;;;;;5001784;28;20046;-86
2020/12/11 10:42:21;;;;;;;5.82;4.80;;;7.40;96.70;;;;;;4987916;28;20065;-87
2020/12/11 10:44:49;;;;;;;7.63;5.28;;;7.40;96.70;;;;;;4987875;28;20044;-87
2020/12/11 10:47:16;;;;;;;6.38;5.15;;;7.50;96.70;;;;;;5001222;28;20128;-85
2020/12/11 10:49:43;;;;;;;5.28;4.70;;;7.50;96.70;;;;;;5001590;28;20423;-86
2020/12/11 10:52:11;;;;;;;5.28;4.60;;;7.60;96.70;;;;;;5003961;28;20034;-86
2020/12/11 10:54:38;;;;;;;8.82;5.45;;;7.70;96.70;;;;;;4987454;28;20156;-87
2020/12/11 10:57:05;;;;;;;7.07;5.15;;;7.70;96.70;;;;;;5003853;28;20034;-85
2020/12/11 10:59:33;;;;;;;6.18;4.63;;;7.80;96.70;;;;;;5001954;28;20096;-87
2020/12/11 11:02:00;;;;;;;5.65;4.82;;;7.90;96.70;;;;;;4986485;28;20415;-87
2020/12/11 11:04:28;;;;;;;6.63;4.32;;;7.90;96.70;;;;;;5002371;28;20042;-87
2020/12/11 11:07:02;;;;;;;5.22;4.70;;;7.90;96.70;;;;;;4988523;28;20084;-87
2020/12/11 11:09:36;;;;;;;5.75;4.82;;;8.10;96.70;;;;;;4997819;28;20488;-86
2020/12/11 11:14:57;;;;;;;5.82;5.10;;;8.10;96.70;;;;;;4986410;28;20411;-88
2020/12/11 11:20:15;;;;;;;8.55;6.80;;;8.20;96.70;;;;;;4995948;28;20050;-88
2020/12/11 11:30:25;;;;;;;9.48;7.03;;;8.20;96.70;;;;;;5001819;28;20046;-86
2020/12/11 11:32:53;;;;;;;8.75;6.90;;;8.30;96.70;;;;;;5000902;28;20399;-87
2020/12/11 11:35:21;;;;;;;9.27;6.88;;;8.40;96.70;;;;;;4985574;28;20037;-87
2020/12/11 11:37:49;;;;;;;9.02;7.10;;;8.40;96.70;;;;;;5002156;28;20518;-86
2020/12/11 11:40:17;;;;;;;8.52;7.20;;;8.50;96.70;;;;;;4999567;28;20042;-86
2020/12/11 11:42:45;;;;;;;8.25;7.35;;;8.60;96.70;;;;;;5002797;28;20196;-87
2020/12/11 11:45:16;;;;;;;9.30;7.28;;;8.90;96.70;;;;;;4999995;28;20038;-87
2020/12/11 11:47:48;;;;;;;8.02;6.93;;;9.10;96.70;;;;;;4984980;28;20050;-87
2020/12/11 11:55:14;;;;;;;8.38;7.32;;;9.50;96.70;;;;;;4984933;28;20048;-86
2020/12/11 11:57:42;;;;;;;10.23;7.90;;;9.60;96.70;;;;;;5001582;28;20141;-86
2020/12/11 12:00:11;;;;;;;8.07;7.07;;;9.80;96.70;;;;;;5001352;28;20411;-87
2020/12/11 12:02:38;;;;;;;10.45;7.35;;;9.80;96.70;;;;;;5000868;28;20049;-86
2020/12/11 12:05:10;;;;;;;8.90;7.85;;;9.90;96.70;;;;;;5000882;28;20129;-88
2020/12/11 12:07:39;;;;;;;11.05;7.40;;;10.10;96.70;;;;;;4985703;28;20042;-86
2020/12/11 12:10:09;;;;;;;8.40;7.50;;;10.20;96.70;;;;;;4983157;28;20073;-88
2020/12/11 12:12:38;;;;;;;10.27;7.60;;;10.10;96.70;;;;;;5002357;28;20090;-87
2020/12/11 12:15:11;;;;;;;10.82;8.43;;;10.10;96.70;;;;;;5017417;28;20038;-87
2020/12/11 12:17:50;;;;;;;10.77;8.60;;;10.10;96.70;;;;;;4998887;28;20038;-87
2020/12/11 12:20:31;;;;;;;10.25;7.55;;;10.00;96.70;;;;;;5000436;28;20050;-86
2020/12/11 12:30:46;;;;;;;8.10;6.88;;;10.00;96.70;;;;;;5001335;28;20038;-87
2020/12/11 12:33:54;;;;;;;8.50;6.53;;;10.00;96.70;;;;;;4984924;28;20057;-85
2020/12/11 12:43:25;;;;;;;11.43;7.93;;;10.00;96.70;;;;;;4999700;28;20038;-87
2020/12/11 12:45:52;;;;;;;12.90;9.02;;;10.00;96.70;;;;;;5001989;28;20057;-86
2020/12/11 12:48:21;;;;;;;13.70;9.40;;;10.00;96.70;;;;;;4997251;28;20046;-87
2020/12/11 12:50:48;;;;;;;13.73;9.68;;;9.90;96.70;;;;;;4999038;28;20116;-86
2020/12/11 12:53:15;;;;;;;17.20;10.85;;;9.90;96.70;;;;;;4979472;28;20141;-87
2020/12/11 12:55:46;;;;;;;14.85;10.50;;;9.90;96.70;;;;;;4986413;28;20531;-87
2020/12/11 12:58:16;;;;;;;17.58;11.38;;;9.90;96.70;;;;;;5001377;28;20046;-88
2020/12/11 13:00:53;;;;;;;16.67;11.43;;;9.90;96.70;;;;;;5002234;28;20045;-87
2020/12/11 13:03:43;;;;;;;16.60;11.27;;;9.90;96.70;;;;;;5001228;28;20145;-87
2020/12/11 13:06:08;;;;;;;15.40;10.82;;;9.90;96.70;;;;;;5003303;28;20128;-87
2020/12/11 13:08:35;;;;;;;18.05;11.27;;;9.90;96.70;;;;;;5002849;28;20038;-86
2020/12/11 13:11:02;;;;;;;18.40;12.20;;;9.90;96.70;;;;;;5004403;28;20149;-87
2020/12/11 13:13:29;;;;;;;15.10;10.90;;;9.90;96.70;;;;;;5005169;28;20049;-86
2020/12/11 13:15:57;;;;;;;14.35;9.93;;;9.90;96.70;;;;;;5004877;28;20113;-86
2020/12/11 13:18:24;;;;;;;15.82;10.82;;;9.90;96.70;;;;;;5004298;28;20049;-86
2020/12/11 13:20:53;;;;;;;17.10;10.85;;;9.90;96.70;;;;;;5003741;28;20133;-86
2020/12/11 13:28:44;;;;;;;19.27;11.70;;;9.90;96.70;;;;;;5004388;28;20628;-87
2020/12/11 13:31:16;;;;;;;12.88;9.30;;;10.00;96.70;;;;;;4985982;28;20153;-87
2020/12/11 13:33:44;;;;;;;13.45;9.60;;;10.00;96.70;;;;;;5003693;28;20052;-86
2020/12/11 13:36:11;;;;;;;15.82;10.32;;;10.00;96.70;;;;;;4986087;28;20049;-87
2020/12/11 13:38:39;;;;;;;12.57;9.00;;;9.90;96.70;;;;;;5011344;28;20108;-87
2020/12/11 13:41:09;;;;;;;13.32;9.63;;;9.90;96.70;;;;;;5016593;28;20034;-87
2020/12/11 13:43:36;;;;;;;11.82;9.10;;;9.90;96.70;;;;;;5002064;28;20056;-87
2020/12/11 13:46:03;;;;;;;11.27;9.55;;;9.90;96.70;;;;;;5003444;28;20064;-88
2020/12/11 13:48:31;;;;;;;11.70;8.80;;;9.90;96.70;;;;;;5018972;28;20467;-87
2020/12/11 13:50:59;;;;;;;12.68;9.13;;;9.80;96.70;;;;;;5003548;28;20038;-87
2020/12/11 13:53:26;;;;;;;13.32;9.57;;;9.80;96.70;;;;;;5002335;28;20061;-87
2020/12/11 13:55:53;;;;;;;13.45;9.43;;;9.80;96.70;;;;;;4997711;28;20045;-86